sensor_id;sensor_type;location;lat;lon;timestamp;pressure;altitude;pressure_sealevel;temperature;humidity
63019;BME280;49105;46.046;10.760;2023-03-19T00:01:56;95855.25;;;5.38;57.56
63019;BME280;49105;46.046;10.760;2023-03-19T00:04:25;95865.69;;;5.21;57.74
63019;BME280;49105;46.046;10.760;2023-03-19T00:06:51;95875.84;;;5.18;58.11
63019;BME280;49105;46.046;10.760;2023-03-19T00:09:26;95854.88;;;5.18;57.68
63019;BME280;49105;46.046;10.760;2023-03-19T00:12:02;95850.88;;;5.27;58.13
63019;BME280;49105;46.046;10.760;2023-03-19T00:14:27;95857.66;;;5.40;57.96
63019;BME280;49105;46.046;10.760;2023-03-19T00:17:05;95838.22;;;5.24;58.49
63019;BME280;49105;46.046;10.760;2023-03-19T00:19:37;95843.44;;;5.24;58.40
63019;BME280;49105;46.046;10.760;2023-03-19T00:22:03;95856.00;;;5.22;57.91
63019;BME280;49105;46.046;10.760;2023-03-19T00:24:29;95861.56;;;5.26;57.88
63019;BME280;49105;46.046;10.760;2023-03-19T00:26:54;95852.81;;;5.20;58.38
63019;BME280;49105;46.046;10.760;2023-03-19T00:29:20;95853.28;;;5.17;58.06
63019;BME280;49105;46.046;10.760;2023-03-19T00:31:53;95846.16;;;5.29;58.07
63019;BME280;49105;46.046;10.760;2023-03-19T00:34:18;95844.31;;;5.41;57.73
63019;BME280;49105;46.046;10.760;2023-03-19T00:36:50;95840.38;;;5.27;58.12
63019;BME280;49105;46.046;10.760;2023-03-19T00:39:25;95837.53;;;5.17;58.14
63019;BME280;49105;46.046;10.760;2023-03-19T00:41:53;95838.56;;;5.16;58.25
63019;BME280;49105;46.046;10.760;2023-03-19T00:44:19;95837.06;;;5.20;58.10
63019;BME280;49105;46.046;10.760;2023-03-19T00:46:53;95845.50;;;5.22;57.96
63019;BME280;49105;46.046;10.760;2023-03-19T00:49:27;95849.50;;;5.25;58.04
63019;BME280;49105;46.046;10.760;2023-03-19T00:51:53;95846.41;;;5.28;57.85
63019;BME280;49105;46.046;10.760;2023-03-19T00:54:18;95841.72;;;5.30;57.99
63019;BME280;49105;46.046;10.760;2023-03-19T00:56:50;95836.88;;;5.10;58.21
63019;BME280;49105;46.046;10.760;2023-03-19T00:59:21;95842.84;;;4.93;58.67
63019;BME280;49105;46.046;10.760;2023-03-19T01:01:47;95843.78;;;4.87;59.28
63019;BME280;49105;46.046;10.760;2023-03-19T01:04:12;95835.44;;;4.90;59.01
63019;BME280;49105;46.046;10.760;2023-03-19T01:06:38;95839.66;;;4.91;58.64
63019;BME280;49105;46.046;10.760;2023-03-19T01:09:14;95850.16;;;4.91;58.63
63019;BME280;49105;46.046;10.760;2023-03-19T01:11:48;95854.16;;;4.94;58.78
63019;BME280;49105;46.046;10.760;2023-03-19T01:14:17;95843.50;;;5.01;58.43
63019;BME280;49105;46.046;10.760;2023-03-19T01:16:42;95837.81;;;5.04;58.54
63019;BME280;49105;46.046;10.760;2023-03-19T01:19:14;95842.69;;;5.12;58.69
63019;BME280;49105;46.046;10.760;2023-03-19T01:21:49;95839.03;;;5.13;58.29
63019;BME280;49105;46.046;10.760;2023-03-19T01:24:15;95839.03;;;5.13;58.41
63019;BME280;49105;46.046;10.760;2023-03-19T01:26:41;95842.78;;;5.17;58.64
63019;BME280;49105;46.046;10.760;2023-03-19T01:29:13;95841.75;;;5.18;58.22
63019;BME280;49105;46.046;10.760;2023-03-19T01:31:45;95836.28;;;5.19;58.50
63019;BME280;49105;46.046;10.760;2023-03-19T01:34:13;95831.03;;;5.19;58.26
63019;BME280;49105;46.046;10.760;2023-03-19T01:36:48;95823.72;;;5.21;58.35
63019;BME280;49105;46.046;10.760;2023-03-19T01:39:17;95825.91;;;5.13;58.69
63019;BME280;49105;46.046;10.760;2023-03-19T01:41:49;95826.44;;;4.86;59.04
63019;BME280;49105;46.046;10.760;2023-03-19T01:46:54;95822.47;;;4.72;59.53
63019;BME280;49105;46.046;10.760;2023-03-19T01:49:28;95821.56;;;4.78;59.32
63019;BME280;49105;46.046;10.760;2023-03-19T01:52:02;95815.97;;;4.86;59.05
63019;BME280;49105;46.046;10.760;2023-03-19T01:54:34;95815.97;;;4.86;59.12
63019;BME280;49105;46.046;10.760;2023-03-19T01:57:08;95809.25;;;4.79;59.11
63019;BME280;49105;46.046;10.760;2023-03-19T01:59:56;95806.84;;;4.77;59.04
63019;BME280;49105;46.046;10.760;2023-03-19T02:02:38;95814.59;;;4.84;59.18
63019;BME280;49105;46.046;10.760;2023-03-19T02:05:13;95818.47;;;4.81;59.18
63019;BME280;49105;46.046;10.760;2023-03-19T02:07:40;95815.63;;;4.71;59.58
63019;BME280;49105;46.046;10.760;2023-03-19T02:10:10;95816.34;;;4.66;59.59
63019;BME280;49105;46.046;10.760;2023-03-19T02:12:36;95818.25;;;4.71;59.10
63019;BME280;49105;46.046;10.760;2023-03-19T02:15:02;95805.69;;;4.73;59.44
63019;BME280;49105;46.046;10.760;2023-03-19T02:17:34;95810.75;;;4.75;59.15
63019;BME280;49105;46.046;10.760;2023-03-19T02:22:47;95815.97;;;4.75;59.12
63019;BME280;49105;46.046;10.760;2023-03-19T02:28:15;95815.75;;;4.64;59.38
63019;BME280;49105;46.046;10.760;2023-03-19T02:30:51;95815.31;;;4.67;59.43
63019;BME280;49105;46.046;10.760;2023-03-19T02:33:26;95814.25;;;4.68;59.09
63019;BME280;49105;46.046;10.760;2023-03-19T02:35:51;95819.28;;;4.70;59.13
63019;BME280;49105;46.046;10.760;2023-03-19T02:38:26;95816.34;;;4.66;59.11
63019;BME280;49105;46.046;10.760;2023-03-19T02:41:06;95817.38;;;4.65;59.27
63019;BME280;49105;46.046;10.760;2023-03-19T02:43:41;95814.50;;;4.67;59.23
63019;BME280;49105;46.046;10.760;2023-03-19T02:46:16;95815.63;;;4.71;59.12
63019;BME280;49105;46.046;10.760;2023-03-19T02:48:48;95818.38;;;4.64;59.36
63019;BME280;49105;46.046;10.760;2023-03-19T02:54:35;95818.97;;;4.31;59.91
63019;BME280;49105;46.046;10.760;2023-03-19T02:57:01;95815.56;;;4.31;59.86
63019;BME280;49105;46.046;10.760;2023-03-19T02:59:26;95805.41;;;4.34;59.88
63019;BME280;49105;46.046;10.760;2023-03-19T03:02:00;95816.50;;;4.36;59.59
63019;BME280;49105;46.046;10.760;2023-03-19T03:04:33;95813.63;;;4.38;59.64
63019;BME280;49105;46.046;10.760;2023-03-19T03:06:59;95808.97;;;4.28;59.68
63019;BME280;49105;46.046;10.760;2023-03-19T03:09:25;95814.06;;;4.23;60.26
63019;BME280;49105;46.046;10.760;2023-03-19T03:11:54;95818.31;;;4.24;60.33
63019;BME280;49105;46.046;10.760;2023-03-19T03:14:25;95822.72;;;4.23;60.33
63019;BME280;49105;46.046;10.760;2023-03-19T03:16:57;95819.53;;;4.10;60.47
63019;BME280;49105;46.046;10.760;2023-03-19T03:19:22;95809.31;;;4.08;60.51
63019;BME280;49105;46.046;10.760;2023-03-19T03:21:48;95806.78;;;4.13;60.39
63019;BME280;49105;46.046;10.760;2023-03-19T03:24:22;95809.31;;;4.08;60.54
63019;BME280;49105;46.046;10.760;2023-03-19T03:26:51;95817.69;;;3.98;60.63
63019;BME280;49105;46.046;10.760;2023-03-19T03:29:17;95826.94;;;4.01;60.57
63019;BME280;49105;46.046;10.760;2023-03-19T03:31:42;95813.75;;;4.08;60.61
63019;BME280;49105;46.046;10.760;2023-03-19T03:34:14;95799.84;;;4.19;60.63
63019;BME280;49105;46.046;10.760;2023-03-19T03:36:48;95804.19;;;4.25;60.06
63019;BME280;49105;46.046;10.760;2023-03-19T03:39:23;95805.97;;;4.01;60.64
63019;BME280;49105;46.046;10.760;2023-03-19T03:41:57;95807.56;;;3.90;60.80
63019;BME280;49105;46.046;10.760;2023-03-19T03:44:29;95828.50;;;3.90;60.73
63019;BME280;49105;46.046;10.760;2023-03-19T03:46:57;95816.44;;;3.89;60.89
63019;BME280;49105;46.046;10.760;2023-03-19T03:49:26;95807.00;;;3.88;60.76
63019;BME280;49105;46.046;10.760;2023-03-19T03:51:57;95807.56;;;3.90;60.77
63019;BME280;49105;46.046;10.760;2023-03-19T03:54:29;95815.09;;;3.87;60.86
63019;BME280;49105;46.046;10.760;2023-03-19T03:57:06;95812.69;;;3.85;60.85
63019;BME280;49105;46.046;10.760;2023-03-19T03:59:41;95804.63;;;3.87;61.04
63019;BME280;49105;46.046;10.760;2023-03-19T04:02:12;95796.75;;;3.87;60.81
63019;BME280;49105;46.046;10.760;2023-03-19T04:04:44;95804.50;;;3.93;60.84
63019;BME280;49105;46.046;10.760;2023-03-19T04:07:10;95815.56;;;3.95;60.55
63019;BME280;49105;46.046;10.760;2023-03-19T04:09:42;95816.66;;;3.76;60.73
63019;BME280;49105;46.046;10.760;2023-03-19T04:12:16;95826.03;;;3.54;61.03
63019;BME280;49105;46.046;10.760;2023-03-19T04:14:54;95827.06;;;3.53;61.55
63019;BME280;49105;46.046;10.760;2023-03-19T04:17:19;95832.66;;;3.56;61.51
63019;BME280;49105;46.046;10.760;2023-03-19T04:19:54;95834.16;;;3.64;61.28
63019;BME280;49105;46.046;10.760;2023-03-19T04:22:25;95822.56;;;3.71;61.18
63019;BME280;49105;46.046;10.760;2023-03-19T04:24:54;95825.53;;;3.75;61.24
63019;BME280;49105;46.046;10.760;2023-03-19T04:27:22;95833.28;;;3.82;60.87
63019;BME280;49105;46.046;10.760;2023-03-19T04:29:48;95832.34;;;3.76;60.71
63019;BME280;49105;46.046;10.760;2023-03-19T04:32:14;95830.53;;;3.77;60.92
63019;BME280;49105;46.046;10.760;2023-03-19T04:34:43;95821.41;;;3.67;61.11
63019;BME280;49105;46.046;10.760;2023-03-19T04:37:08;95823.91;;;3.62;61.28
63019;BME280;49105;46.046;10.760;2023-03-19T04:39:35;95836.16;;;3.50;61.29
63019;BME280;49105;46.046;10.760;2023-03-19T04:42:01;95834.44;;;3.44;61.49
63019;BME280;49105;46.046;10.760;2023-03-19T04:44:27;95837.34;;;3.36;61.84
63019;BME280;49105;46.046;10.760;2023-03-19T04:46:59;95838.16;;;3.36;61.86
63019;BME280;49105;46.046;10.760;2023-03-19T04:49:28;95832.84;;;3.43;61.75
63019;BME280;49105;46.046;10.760;2023-03-19T04:52:04;95837.16;;;3.49;61.49
63019;BME280;49105;46.046;10.760;2023-03-19T04:54:30;95834.72;;;3.36;61.70
63019;BME280;49105;46.046;10.760;2023-03-19T04:57:14;95836.16;;;3.20;61.81
63019;BME280;49105;46.046;10.760;2023-03-19T04:59:40;95835.22;;;3.14;62.01
63019;BME280;49105;46.046;10.760;2023-03-19T05:02:15;95828.59;;;3.12;62.21
63019;BME280;49105;46.046;10.760;2023-03-19T05:04:41;95836.38;;;3.18;62.00
63019;BME280;49105;46.046;10.760;2023-03-19T05:07:12;95834.13;;;3.22;61.80
63019;BME280;49105;46.046;10.760;2023-03-19T05:09:57;95841.53;;;3.25;61.95
63019;BME280;49105;46.046;10.760;2023-03-19T05:12:34;95840.50;;;3.26;61.72
63019;BME280;49105;46.046;10.760;2023-03-19T05:15:10;95843.13;;;3.26;62.11
63019;BME280;49105;46.046;10.760;2023-03-19T05:17:35;95844.28;;;3.30;61.97
63019;BME280;49105;46.046;10.760;2023-03-19T05:20:09;95852.25;;;3.35;61.54
63019;BME280;49105;46.046;10.760;2023-03-19T05:22:38;95849.41;;;3.37;61.64
63019;BME280;49105;46.046;10.760;2023-03-19T05:25:04;95852.63;;;3.39;61.80
63019;BME280;49105;46.046;10.760;2023-03-19T05:27:34;95851.34;;;3.41;61.58
63019;BME280;49105;46.046;10.760;2023-03-19T05:30:04;95865.59;;;3.45;61.62
63019;BME280;49105;46.046;10.760;2023-03-19T05:32:36;95877.50;;;3.41;61.43
63019;BME280;49105;46.046;10.760;2023-03-19T05:35:12;95875.31;;;3.27;61.77
63019;BME280;49105;46.046;10.760;2023-03-19T05:37:41;95875.88;;;3.29;62.11
63019;BME280;49105;46.046;10.760;2023-03-19T05:40:12;95880.09;;;3.30;61.79
63019;BME280;49105;46.046;10.760;2023-03-19T05:42:41;95886.56;;;3.27;61.95
63019;BME280;49105;46.046;10.760;2023-03-19T05:45:07;95886.94;;;3.31;62.00
63019;BME280;49105;46.046;10.760;2023-03-19T05:47:33;95888.28;;;3.33;61.86
63019;BME280;49105;46.046;10.760;2023-03-19T05:50:02;95881.75;;;3.42;61.84
63019;BME280;49105;46.046;10.760;2023-03-19T05:52:28;95886.69;;;3.51;61.66
63019;BME280;49105;46.046;10.760;2023-03-19T05:54:53;95883.53;;;3.60;61.41
63019;BME280;49105;46.046;10.760;2023-03-19T05:57:21;95881.69;;;3.61;61.52
63019;BME280;49105;46.046;10.760;2023-03-19T05:59:56;95879.44;;;3.64;61.40
63019;BME280;49105;46.046;10.760;2023-03-19T06:02:31;95882.06;;;3.64;61.47
63019;BME280;49105;46.046;10.760;2023-03-19T06:05:31;95903.22;;;3.63;61.46
63019;BME280;49105;46.046;10.760;2023-03-19T06:07:56;95901.78;;;3.48;61.67
63019;BME280;49105;46.046;10.760;2023-03-19T06:10:25;95891.56;;;3.47;61.99
63019;BME280;49105;46.046;10.760;2023-03-19T06:13:00;95881.88;;;3.47;62.09
63019;BME280;49105;46.046;10.760;2023-03-19T06:15:25;95881.56;;;3.56;61.73
63019;BME280;49105;46.046;10.760;2023-03-19T06:17:51;95877.38;;;3.55;62.04
63019;BME280;49105;46.046;10.760;2023-03-19T06:20:17;95882.38;;;3.56;61.96
63019;BME280;49105;46.046;10.760;2023-03-19T06:22:43;95881.69;;;3.61;61.87
63019;BME280;49105;46.046;10.760;2023-03-19T06:25:09;95887.97;;;3.60;62.00
63019;BME280;49105;46.046;10.760;2023-03-19T06:27:41;95896.69;;;3.54;62.08
63019;BME280;49105;46.046;10.760;2023-03-19T06:30:08;95895.00;;;3.59;62.09
63019;BME280;49105;46.046;10.760;2023-03-19T06:32:34;95899.81;;;3.62;62.17
63019;BME280;49105;46.046;10.760;2023-03-19T06:35:00;95897.09;;;3.69;61.89
63019;BME280;49105;46.046;10.760;2023-03-19T06:37:26;95899.84;;;3.74;61.83
63019;BME280;49105;46.046;10.760;2023-03-19T06:40:01;95907.16;;;3.84;61.84
63019;BME280;49105;46.046;10.760;2023-03-19T06:42:45;95914.47;;;3.93;61.60
63019;BME280;49105;46.046;10.760;2023-03-19T06:45:14;95908.22;;;3.94;61.64
63019;BME280;49105;46.046;10.760;2023-03-19T06:47:42;95918.25;;;3.97;61.67
63019;BME280;49105;46.046;10.760;2023-03-19T06:50:13;95915.63;;;3.97;61.69
63019;BME280;49105;46.046;10.760;2023-03-19T06:52:39;95922.69;;;3.97;61.46
63019;BME280;49105;46.046;10.760;2023-03-19T06:55:09;95922.69;;;3.67;62.26
63019;BME280;49105;46.046;10.760;2023-03-19T06:57:36;95923.69;;;3.54;62.49
63019;BME280;49105;46.046;10.760;2023-03-19T07:00:03;95927.53;;;3.52;62.67
63019;BME280;49105;46.046;10.760;2023-03-19T07:02:35;95926.06;;;3.56;62.49
63019;BME280;49105;46.046;10.760;2023-03-19T07:05:00;95925.75;;;3.64;62.34
63019;BME280;49105;46.046;10.760;2023-03-19T07:07:29;95934.47;;;3.76;62.25
63019;BME280;49105;46.046;10.760;2023-03-19T07:09:54;95929.34;;;3.81;62.13
63019;BME280;49105;46.046;10.760;2023-03-19T07:12:26;95931.88;;;3.88;62.32
63019;BME280;49105;46.046;10.760;2023-03-19T07:14:55;95922.56;;;3.92;62.28
63019;BME280;49105;46.046;10.760;2023-03-19T07:17:39;95939.25;;;3.79;62.50
63019;BME280;49105;46.046;10.760;2023-03-19T07:20:05;95941.88;;;3.79;62.44
63019;BME280;49105;46.046;10.760;2023-03-19T07:22:36;95935.72;;;3.85;62.34
63019;BME280;49105;46.046;10.760;2023-03-19T07:25:11;95934.38;;;3.94;62.48
63019;BME280;49105;46.046;10.760;2023-03-19T07:27:46;95937.63;;;4.08;62.27
63019;BME280;49105;46.046;10.760;2023-03-19T07:30:14;95929.94;;;4.25;61.97
63019;BME280;49105;46.046;10.760;2023-03-19T07:32:43;95934.25;;;4.31;61.91
63019;BME280;49105;46.046;10.760;2023-03-19T07:35:09;95924.91;;;4.35;62.14
63019;BME280;49105;46.046;10.760;2023-03-19T07:37:38;95937.03;;;4.36;62.27
63019;BME280;49105;46.046;10.760;2023-03-19T07:43:35;95935.78;;;4.51;62.36
63019;BME280;49105;46.046;10.760;2023-03-19T07:46:09;95935.44;;;4.59;62.29
63019;BME280;49105;46.046;10.760;2023-03-19T07:48:48;95934.31;;;4.78;61.84
63019;BME280;49105;46.046;10.760;2023-03-19T07:51:22;95935.66;;;4.92;61.90
63019;BME280;49105;46.046;10.760;2023-03-19T07:53:56;95940.56;;;5.01;61.54
63019;BME280;49105;46.046;10.760;2023-03-19T07:56:31;95929.03;;;5.13;61.77
63019;BME280;49105;46.046;10.760;2023-03-19T07:59:06;95936.34;;;5.23;61.17
63019;BME280;49105;46.046;10.760;2023-03-19T08:01:40;95935.41;;;5.29;61.35
63019;BME280;49105;46.046;10.760;2023-03-19T08:04:12;95929.22;;;5.35;61.14
63019;BME280;49105;46.046;10.760;2023-03-19T08:06:38;95931.38;;;5.38;61.24
63019;BME280;49105;46.046;10.760;2023-03-19T08:09:13;95925.13;;;5.39;61.48
63019;BME280;49105;46.046;10.760;2023-03-19T08:11:39;95916.88;;;5.47;60.92
63019;BME280;49105;46.046;10.760;2023-03-19T08:14:10;95929.81;;;5.66;60.88
63019;BME280;49105;46.046;10.760;2023-03-19T08:16:39;95929.19;;;5.76;60.76
63019;BME280;49105;46.046;10.760;2023-03-19T08:19:10;95928.25;;;5.93;60.29
63019;BME280;49105;46.046;10.760;2023-03-19T08:21:45;95924.38;;;6.13;60.32
63019;BME280;49105;46.046;10.760;2023-03-19T08:24:20;95921.94;;;6.23;60.31
63019;BME280;49105;46.046;10.760;2023-03-19T08:26:51;95920.03;;;6.35;59.89
63019;BME280;49105;46.046;10.760;2023-03-19T08:29:17;95917.47;;;6.40;59.92
63019;BME280;49105;46.046;10.760;2023-03-19T08:31:42;95917.47;;;6.40;60.18
63019;BME280;49105;46.046;10.760;2023-03-19T08:34:17;95922.66;;;6.52;59.39
63019;BME280;49105;46.046;10.760;2023-03-19T08:36:52;95919.47;;;6.67;59.46
63019;BME280;49105;46.046;10.760;2023-03-19T08:39:23;95919.63;;;6.77;59.33
63019;BME280;49105;46.046;10.760;2023-03-19T08:41:55;95914.94;;;6.79;59.48
63019;BME280;49105;46.046;10.760;2023-03-19T08:44:21;95910.28;;;6.86;59.15
63019;BME280;49105;46.046;10.760;2023-03-19T08:46:47;95913.22;;;6.90;59.38
63019;BME280;49105;46.046;10.760;2023-03-19T08:49:12;95904.69;;;7.00;59.40
63019;BME280;49105;46.046;10.760;2023-03-19T08:51:47;95915.06;;;7.11;58.89
63019;BME280;49105;46.046;10.760;2023-03-19T08:54:18;95909.16;;;7.21;58.81
63019;BME280;49105;46.046;10.760;2023-03-19T08:56:56;95905.31;;;7.29;58.64
63019;BME280;49105;46.046;10.760;2023-03-19T08:59:24;95884.63;;;7.37;58.32
63019;BME280;49105;46.046;10.760;2023-03-19T09:01:51;95881.59;;;7.51;58.13
63019;BME280;49105;46.046;10.760;2023-03-19T09:04:22;95886.44;;;7.59;57.94
63019;BME280;49105;46.046;10.760;2023-03-19T09:06:48;95881.53;;;7.67;57.88
63019;BME280;49105;46.046;10.760;2023-03-19T09:09:18;95885.00;;;7.73;57.65
63019;BME280;49105;46.046;10.760;2023-03-19T09:11:50;95883.75;;;7.81;57.49
63019;BME280;49105;46.046;10.760;2023-03-19T09:14:27;95878.03;;;7.89;57.51
63019;BME280;49105;46.046;10.760;2023-03-19T09:20:20;95876.03;;;8.01;56.88
63019;BME280;49105;46.046;10.760;2023-03-19T09:22:51;95875.34;;;8.11;57.16
63019;BME280;49105;46.046;10.760;2023-03-19T09:25:17;95874.38;;;8.22;56.75
63019;BME280;49105;46.046;10.760;2023-03-19T09:27:48;95875.00;;;8.34;56.74
63019;BME280;49105;46.046;10.760;2023-03-19T09:30:14;95874.56;;;8.42;56.33
63019;BME280;49105;46.046;10.760;2023-03-19T09:32:39;95877.00;;;8.49;56.24
63019;BME280;49105;46.046;10.760;2023-03-19T09:35:11;95874.69;;;8.58;55.99
63019;BME280;49105;46.046;10.760;2023-03-19T09:37:36;95865.00;;;8.68;55.97
63019;BME280;49105;46.046;10.760;2023-03-19T09:40:26;95855.78;;;8.76;55.37
63019;BME280;49105;46.046;10.760;2023-03-19T09:43:13;95851.34;;;8.82;55.31
63019;BME280;49105;46.046;10.760;2023-03-19T09:45:44;95848.47;;;8.88;55.44
63019;BME280;49105;46.046;10.760;2023-03-19T09:48:15;95841.13;;;9.01;55.53
63019;BME280;49105;46.046;10.760;2023-03-19T09:50:45;95839.09;;;9.13;54.90
63019;BME280;49105;46.046;10.760;2023-03-19T09:53:19;95836.50;;;9.28;54.72
63019;BME280;49105;46.046;10.760;2023-03-19T09:55:55;95829.16;;;9.40;54.50
63019;BME280;49105;46.046;10.760;2023-03-19T09:58:33;95831.56;;;9.52;54.86
63019;BME280;49105;46.046;10.760;2023-03-19T10:01:02;95831.34;;;9.64;54.62
63019;BME280;49105;46.046;10.760;2023-03-19T10:03:56;95826.59;;;9.81;54.45
63019;BME280;49105;46.046;10.760;2023-03-19T10:06:36;95821.84;;;9.93;53.77
63019;BME280;49105;46.046;10.760;2023-03-19T10:17:36;95816.56;;;10.44;53.12
63019;BME280;49105;46.046;10.760;2023-03-19T10:20:07;95810.50;;;10.54;53.14
63019;BME280;49105;46.046;10.760;2023-03-19T10:22:45;95816.28;;;10.61;53.05
63019;BME280;49105;46.046;10.760;2023-03-19T10:25:20;95813.38;;;10.68;52.64
63019;BME280;49105;46.046;10.760;2023-03-19T10:27:51;95814.69;;;10.76;52.69
63019;BME280;49105;46.046;10.760;2023-03-19T10:30:21;95805.66;;;10.82;51.44
63019;BME280;49105;46.046;10.760;2023-03-19T10:32:54;95804.84;;;10.91;51.99
63019;BME280;49105;46.046;10.760;2023-03-19T10:35:40;95811.13;;;11.06;51.94
63019;BME280;49105;46.046;10.760;2023-03-19T10:38:20;95812.16;;;11.15;51.29
63019;BME280;49105;46.046;10.760;2023-03-19T10:43:53;95808.38;;;11.31;50.80
63019;BME280;49105;46.046;10.760;2023-03-19T10:46:39;95803.03;;;11.41;50.46
63019;BME280;49105;46.046;10.760;2023-03-19T10:49:12;95799.03;;;11.49;50.16
63019;BME280;49105;46.046;10.760;2023-03-19T10:51:47;95794.47;;;11.55;49.11
63019;BME280;49105;46.046;10.760;2023-03-19T10:54:28;95778.31;;;11.56;48.16
63019;BME280;49105;46.046;10.760;2023-03-19T10:57:00;95773.22;;;11.60;48.06
63019;BME280;49105;46.046;10.760;2023-03-19T10:59:38;95772.69;;;11.63;47.35
63019;BME280;49105;46.046;10.760;2023-03-19T11:02:24;95771.56;;;11.74;47.85
63019;BME280;49105;46.046;10.760;2023-03-19T11:05:22;95769.03;;;11.93;47.85
63019;BME280;49105;46.046;10.760;2023-03-19T11:08:18;95764.75;;;12.02;47.80
63019;BME280;49105;46.046;10.760;2023-03-19T11:10:47;95762.78;;;12.13;47.74
63019;BME280;49105;46.046;10.760;2023-03-19T11:13:24;95759.03;;;12.19;48.06
63019;BME280;49105;46.046;10.760;2023-03-19T11:15:59;95762.72;;;12.23;46.92
63019;BME280;49105;46.046;10.760;2023-03-19T11:18:38;95754.19;;;12.26;47.02
63019;BME280;49105;46.046;10.760;2023-03-19T11:21:39;95751.50;;;12.31;46.58
63019;BME280;49105;46.046;10.760;2023-03-19T11:24:10;95747.19;;;12.35;46.83
63019;BME280;49105;46.046;10.760;2023-03-19T11:26:37;95739.47;;;12.39;46.94
63019;BME280;49105;46.046;10.760;2023-03-19T11:29:03;95732.56;;;12.38;46.02
63019;BME280;49105;46.046;10.760;2023-03-19T11:31:47;95728.06;;;12.38;45.53
63019;BME280;49105;46.046;10.760;2023-03-19T11:45:17;95709.25;;;12.59;45.38
63019;BME280;49105;46.046;10.760;2023-03-19T12:12:42;95675.22;;;13.04;44.35
63019;BME280;49105;46.046;10.760;2023-03-19T12:15:19;95672.88;;;13.02;44.17
63019;BME280;49105;46.046;10.760;2023-03-19T12:18:00;95670.28;;;12.97;43.74
63019;BME280;49105;46.046;10.760;2023-03-19T12:26:16;95670.25;;;12.78;44.21
63019;BME280;49105;46.046;10.760;2023-03-19T12:34:37;95682.34;;;12.89;44.42
63019;BME280;49105;46.046;10.760;2023-03-19T12:37:32;95656.69;;;12.99;44.32
63019;BME280;49105;46.046;10.760;2023-03-19T12:40:04;95671.50;;;13.05;43.76
63019;BME280;49105;46.046;10.760;2023-03-19T12:42:38;95672.22;;;13.10;44.06
63019;BME280;49105;46.046;10.760;2023-03-19T12:45:34;95670.78;;;13.18;43.99
63019;BME280;49105;46.046;10.760;2023-03-19T12:48:13;95663.78;;;13.27;43.39
63019;BME280;49105;46.046;10.760;2023-03-19T12:50:43;95660.25;;;13.32;43.81
63019;BME280;49105;46.046;10.760;2023-03-19T12:53:44;95658.31;;;13.37;43.87
63019;BME280;49105;46.046;10.760;2023-03-19T12:56:13;95660.38;;;13.40;43.25
63019;BME280;49105;46.046;10.760;2023-03-19T12:58:58;95652.41;;;13.40;43.40
63019;BME280;49105;46.046;10.760;2023-03-19T13:01:49;95655.66;;;13.37;43.38
63019;BME280;49105;46.046;10.760;2023-03-19T13:04:22;95654.06;;;13.36;43.65
63019;BME280;49105;46.046;10.760;2023-03-19T13:06:57;95656.34;;;13.43;43.33
63019;BME280;49105;46.046;10.760;2023-03-19T13:09:43;95645.50;;;13.39;43.50
63019;BME280;49105;46.046;10.760;2023-03-19T13:12:24;95647.16;;;13.35;43.96
63019;BME280;49105;46.046;10.760;2023-03-19T13:15:15;95657.00;;;13.35;43.43
63019;BME280;49105;46.046;10.760;2023-03-19T13:20:55;95644.81;;;13.34;43.40
63019;BME280;49105;46.046;10.760;2023-03-19T13:23:37;95642.41;;;13.32;42.97
63019;BME280;49105;46.046;10.760;2023-03-19T13:26:10;95648.25;;;13.34;43.76
63019;BME280;49105;46.046;10.760;2023-03-19T13:31:27;95647.25;;;13.30;43.90
63019;BME280;49105;46.046;10.760;2023-03-19T13:34:18;95650.00;;;13.25;43.81
63019;BME280;49105;46.046;10.760;2023-03-19T13:36:51;95643.38;;;13.23;44.09
63019;BME280;49105;46.046;10.760;2023-03-19T13:39:19;95645.78;;;13.19;44.11
63019;BME280;49105;46.046;10.760;2023-03-19T13:42:07;95644.00;;;13.14;43.47
63019;BME280;49105;46.046;10.760;2023-03-19T13:44:41;95641.63;;;13.13;43.73
63019;BME280;49105;46.046;10.760;2023-03-19T14:14:58;95638.19;;;13.31;43.85
63019;BME280;49105;46.046;10.760;2023-03-19T14:31:17;95648.13;;;13.26;44.03
63019;BME280;49105;46.046;10.760;2023-03-19T14:36:45;95637.31;;;13.17;43.84
63019;BME280;49105;46.046;10.760;2023-03-19T14:39:19;95635.03;;;13.10;43.33
63019;BME280;49105;46.046;10.760;2023-03-19T14:42:19;95632.66;;;13.09;44.09
63019;BME280;49105;46.046;10.760;2023-03-19T14:50:30;95628.69;;;13.06;43.63
63019;BME280;49105;46.046;10.760;2023-03-19T14:56:05;95634.50;;;13.08;44.06
63019;BME280;49105;46.046;10.760;2023-03-19T14:58:35;95629.28;;;13.03;44.76
63019;BME280;49105;46.046;10.760;2023-03-19T15:01:06;95636.44;;;13.03;44.42
63019;BME280;49105;46.046;10.760;2023-03-19T15:03:34;95634.97;;;12.97;44.35
63019;BME280;49105;46.046;10.760;2023-03-19T15:06:09;95631.78;;;12.95;44.22
63019;BME280;49105;46.046;10.760;2023-03-19T15:08:37;95633.94;;;12.93;44.57
63019;BME280;49105;46.046;10.760;2023-03-19T15:14:09;95636.09;;;12.90;44.32
63019;BME280;49105;46.046;10.760;2023-03-19T15:17:22;95637.75;;;12.86;44.51
63019;BME280;49105;46.046;10.760;2023-03-19T15:19:49;95640.47;;;12.81;44.88
63019;BME280;49105;46.046;10.760;2023-03-19T15:22:31;95641.03;;;12.78;44.51
63019;BME280;49105;46.046;10.760;2023-03-19T15:25:11;95636.88;;;12.72;44.90
63019;BME280;49105;46.046;10.760;2023-03-19T15:27:41;95643.53;;;12.70;44.50
63019;BME280;49105;46.046;10.760;2023-03-19T15:30:20;95647.28;;;12.69;44.53
63019;BME280;49105;46.046;10.760;2023-03-19T15:32:46;95649.16;;;12.68;44.87
63019;BME280;49105;46.046;10.760;2023-03-19T15:35:12;95639.56;;;12.67;44.92
63019;BME280;49105;46.046;10.760;2023-03-19T15:37:47;95652.44;;;12.60;44.79
63019;BME280;49105;46.046;10.760;2023-03-19T15:40:52;95645.09;;;12.52;45.22
63019;BME280;49105;46.046;10.760;2023-03-19T15:43:17;95642.47;;;12.47;45.66
63019;BME280;49105;46.046;10.760;2023-03-19T15:45:46;95648.38;;;12.44;45.36